createdAt,value
2019-04-26T00:01:57.486Z,8.10
2019-04-26T00:04:29.462Z,8.20
2019-04-26T00:07:01.111Z,8.20
2019-04-26T00:09:39.204Z,8.10
2019-04-26T00:12:24.416Z,8.00
2019-04-26T00:15:15.134Z,8.00
2019-04-26T00:17:53.402Z,8.00
2019-04-26T00:20:24.918Z,8.00
2019-04-26T00:22:57.074Z,7.90
2019-04-26T00:25:29.006Z,7.70
2019-04-26T00:28:01.765Z,7.50
2019-04-26T00:30:33.090Z,7.40
2019-04-26T00:33:05.995Z,7.40
2019-04-26T00:35:47.341Z,7.30
2019-04-26T00:38:11.637Z,7.40
2019-04-26T00:40:45.836Z,7.50
2019-04-26T00:43:18.532Z,7.50
2019-04-26T00:45:52.615Z,7.70
2019-04-26T00:48:25.938Z,7.80
2019-04-26T00:50:59.146Z,7.80
2019-04-26T00:53:33.674Z,7.80
2019-04-26T00:56:07.346Z,7.80
2019-04-26T00:58:40.206Z,7.80
2019-04-26T01:01:12.097Z,7.80
2019-04-26T01:03:44.529Z,7.70
2019-04-26T01:06:18.818Z,7.80
2019-04-26T01:08:51.234Z,7.90
2019-04-26T01:11:23.819Z,8.00
2019-04-26T01:13:55.255Z,8.10
2019-04-26T01:16:26.521Z,8.10
2019-04-26T01:18:59.979Z,8.10
2019-04-26T01:21:38.465Z,8.10
2019-04-26T01:24:13.767Z,8.20
2019-04-26T01:26:47.330Z,8.20
2019-04-26T01:29:21.712Z,8.20
2019-04-26T01:32:02.341Z,8.20
2019-04-26T01:34:34.769Z,8.20
2019-04-26T01:37:07.439Z,8.30
2019-04-26T01:39:42.740Z,8.30
2019-04-26T01:42:48.921Z,8.30
2019-04-26T01:45:30.571Z,8.30
2019-04-26T01:48:09.159Z,8.30
2019-04-26T01:50:41.306Z,8.40
2019-04-26T01:53:12.971Z,8.40
2019-04-26T01:55:44.616Z,8.40
2019-04-26T01:58:16.045Z,8.40
2019-04-26T02:00:55.345Z,8.30
2019-04-26T02:03:29.772Z,8.30
2019-04-26T02:06:01.495Z,8.30
2019-04-26T02:08:33.281Z,8.30
2019-04-26T02:11:05.324Z,8.30
2019-04-26T02:13:36.879Z,8.30
2019-04-26T02:16:09.096Z,8.30
2019-04-26T02:18:41.019Z,8.30
2019-04-26T02:21:18.676Z,8.30
2019-04-26T02:23:58.860Z,8.30
2019-04-26T02:26:38.493Z,8.30
2019-04-26T02:29:18.289Z,8.40
2019-04-26T02:31:56.831Z,8.40
2019-04-26T02:34:31.760Z,8.40
2019-04-26T02:37:06.771Z,8.40
2019-04-26T02:39:41.085Z,8.30
2019-04-26T02:42:23.578Z,8.40
2019-04-26T02:45:38.230Z,8.40
2019-04-26T02:48:32.200Z,8.40
2019-04-26T02:51:08.008Z,8.40
2019-04-26T02:54:03.980Z,8.40
2019-04-26T02:56:41.493Z,8.40
2019-04-26T02:59:40.905Z,8.30
2019-04-26T03:02:25.799Z,8.30
2019-04-26T03:05:04.213Z,8.40
2019-04-26T03:08:00.923Z,8.40
2019-04-26T03:10:40.408Z,8.40
2019-04-26T03:13:43.898Z,8.40
2019-04-26T03:16:35.194Z,8.40
2019-04-26T03:19:23.192Z,8.40
2019-04-26T03:22:09.326Z,8.50
2019-04-26T03:24:48.747Z,8.60
2019-04-26T03:27:59.347Z,8.60
2019-04-26T03:30:50.854Z,8.70
2019-04-26T03:33:52.280Z,8.70
2019-04-26T03:37:25.869Z,8.70
2019-04-26T03:40:13.723Z,8.70
2019-04-26T03:43:22.823Z,8.70
2019-04-26T03:46:13.915Z,8.60
2019-04-26T03:49:08.374Z,8.70
2019-04-26T03:52:23.206Z,8.70
2019-04-26T03:54:59.090Z,8.70
2019-04-26T03:57:46.166Z,8.70
2019-04-26T04:00:45.597Z,8.70
2019-04-26T04:03:37.614Z,8.70
2019-04-26T04:06:14.319Z,8.70
2019-04-26T04:08:54.984Z,8.70
2019-04-26T04:11:37.501Z,8.70
2019-04-26T04:14:17.773Z,8.60
2019-04-26T04:17:18.991Z,8.50
2019-04-26T04:20:46.297Z,8.50
2019-04-26T04:23:50.698Z,8.60
2019-04-26T04:26:32.474Z,8.60
2019-04-26T04:29:42.472Z,8.60
2019-04-26T04:32:47.655Z,8.60
2019-04-26T04:35:21.831Z,8.60
2019-04-26T04:38:09.292Z,8.50
2019-04-26T04:41:08.730Z,8.60
2019-04-26T04:43:53.181Z,8.60
2019-04-26T04:47:03.795Z,8.60
2019-04-26T04:49:59.058Z,8.60
2019-04-26T04:52:56.168Z,8.70
2019-04-26T04:55:43.127Z,8.70
2019-04-26T04:58:20.040Z,8.80
2019-04-26T05:02:30.088Z,8.70
2019-04-26T05:05:29.470Z,8.80
2019-04-26T05:08:30.598Z,8.80
2019-04-26T05:11:13.458Z,8.80
2019-04-26T05:13:47.900Z,8.80
2019-04-26T05:16:56.216Z,8.80
2019-04-26T05:19:54.881Z,8.80
2019-04-26T05:22:49.080Z,8.80
2019-04-26T05:26:13.964Z,8.80
2019-04-26T05:29:08.237Z,8.90
2019-04-26T05:31:55.054Z,9.00
2019-04-26T05:34:47.951Z,9.00
2019-04-26T05:37:44.027Z,9.00
2019-04-26T05:40:38.214Z,9.00
2019-04-26T05:43:51.563Z,9.10
2019-04-26T05:47:11.985Z,9.10
2019-04-26T05:50:42.964Z,9.20
2019-04-26T05:53:59.366Z,9.20
2019-04-26T05:56:51.160Z,9.30
2019-04-26T05:59:53.431Z,9.30
2019-04-26T06:03:20.325Z,9.40
2019-04-26T06:06:27.947Z,9.40
2019-04-26T06:09:43.095Z,9.50
2019-04-26T06:12:29.543Z,9.50
2019-04-26T06:15:33.771Z,9.60
2019-04-26T06:19:00.205Z,9.60
2019-04-26T06:22:06.582Z,9.70
2019-04-26T06:25:06.071Z,9.90
2019-04-26T06:27:58.305Z,10.00
2019-04-26T06:30:45.671Z,10.00
2019-04-26T06:33:51.459Z,10.20
2019-04-26T06:36:46.777Z,10.20
2019-04-26T06:39:33.045Z,10.30
2019-04-26T06:43:01.282Z,10.30
2019-04-26T06:46:06.748Z,10.40
2019-04-26T06:49:38.351Z,10.60
2019-04-26T06:52:13.563Z,10.80
2019-04-26T06:54:56.255Z,11.00
2019-04-26T06:58:10.193Z,11.10
2019-04-26T07:01:17.940Z,11.10
2019-04-26T07:04:32.264Z,11.10
2019-04-26T07:07:31.712Z,11.10
2019-04-26T07:10:30.287Z,11.30
2019-04-26T07:13:37.463Z,11.50
2019-04-26T07:16:36.468Z,11.70
2019-04-26T07:19:19.035Z,11.70
2019-04-26T07:22:35.874Z,11.90
2019-04-26T07:25:47.382Z,12.20
2019-04-26T07:29:26.021Z,12.20
2019-04-26T07:32:09.506Z,12.30
2019-04-26T07:34:58.600Z,12.20
2019-04-26T07:38:11.100Z,12.10
2019-04-26T07:41:32.746Z,12.30
2019-04-26T07:44:52.246Z,12.50
2019-04-26T07:48:14.632Z,12.70
2019-04-26T07:51:23.429Z,12.80
2019-04-26T07:54:36.024Z,12.80
2019-04-26T07:57:43.991Z,12.90
2019-04-26T08:00:27.500Z,13.00
2019-04-26T08:03:23.599Z,13.00
2019-04-26T08:06:24.717Z,13.10
2019-04-26T08:09:06.076Z,13.20
2019-04-26T08:11:55.989Z,13.30
2019-04-26T08:14:57.203Z,13.40
2019-04-26T08:17:53.505Z,13.40
2019-04-26T08:20:48.353Z,13.50
2019-04-26T08:23:38.517Z,13.50
2019-04-26T08:26:06.031Z,13.70
2019-04-26T08:28:39.000Z,13.70
2019-04-26T08:31:15.409Z,13.80
2019-04-26T08:33:53.649Z,13.80
2019-04-26T08:36:28.703Z,13.90
2019-04-26T08:39:04.575Z,14.00
2019-04-26T08:41:40.457Z,14.00
2019-04-26T08:44:28.676Z,14.00
2019-04-26T08:47:24.028Z,14.10
2019-04-26T08:50:17.803Z,14.20
2019-04-26T08:52:51.196Z,14.30
2019-04-26T08:55:25.410Z,14.20
2019-04-26T08:58:00.646Z,14.40
2019-04-26T09:00:55.221Z,14.60
2019-04-26T09:04:02.933Z,14.60
2019-04-26T09:06:54.841Z,14.60
2019-04-26T09:09:32.295Z,14.70
2019-04-26T09:12:08.415Z,14.70
2019-04-26T09:14:43.498Z,14.70
2019-04-26T09:17:15.153Z,14.90
2019-04-26T09:19:48.407Z,14.90
2019-04-26T09:22:41.665Z,15.00
2019-04-26T09:25:34.584Z,15.10
2019-04-26T09:28:13.151Z,15.20
2019-04-26T09:31:19.656Z,15.40
2019-04-26T09:33:59.366Z,15.40
2019-04-26T09:36:31.328Z,15.40
2019-04-26T09:39:03.954Z,15.20
2019-04-26T09:41:37.982Z,15.00
2019-04-26T09:44:28.603Z,15.10
2019-04-26T09:47:14.912Z,15.20
2019-04-26T09:49:57.348Z,15.30
2019-04-26T09:52:31.996Z,15.40
2019-04-26T09:55:03.837Z,15.60
2019-04-26T09:57:36.114Z,15.70
2019-04-26T10:00:14.291Z,15.60
2019-04-26T10:02:46.246Z,15.80
2019-04-26T10:05:22.281Z,15.90
2019-04-26T10:07:52.764Z,16.20
2019-04-26T10:10:26.031Z,16.30
2019-04-26T10:13:34.651Z,16.30
2019-04-26T10:16:14.099Z,16.50
2019-04-26T10:18:48.755Z,16.60
2019-04-26T10:21:20.321Z,16.70
2019-04-26T10:23:51.797Z,16.70
2019-04-26T10:26:27.742Z,16.80
2019-04-26T10:28:56.926Z,16.90
2019-04-26T10:31:28.705Z,17.30
2019-04-26T10:34:01.435Z,17.10
2019-04-26T10:36:33.489Z,17.20
2019-04-26T10:39:08.571Z,17.40
2019-04-26T10:41:40.765Z,17.50
2019-04-26T10:44:16.369Z,17.50
2019-04-26T10:46:55.323Z,17.70
2019-04-26T10:49:44.514Z,18.00
2019-04-26T10:52:53.634Z,18.30
2019-04-26T10:55:38.819Z,18.50
2019-04-26T10:58:16.764Z,18.60
2019-04-26T11:00:52.651Z,18.70
2019-04-26T11:03:23.910Z,18.40
2019-04-26T11:05:57.027Z,18.30
2019-04-26T11:08:28.687Z,17.90
2019-04-26T11:11:00.415Z,17.50
2019-04-26T11:13:33.110Z,17.40
2019-04-26T11:16:07.087Z,17.40
2019-04-26T11:18:40.262Z,17.50
2019-04-26T11:21:12.193Z,17.70
2019-04-26T11:23:45.525Z,17.90
2019-04-26T11:26:17.606Z,17.90
2019-04-26T11:28:51.416Z,18.00
2019-04-26T11:31:27.553Z,18.00
2019-04-26T11:34:05.115Z,18.40
2019-04-26T11:36:30.047Z,18.50
2019-04-26T11:39:05.450Z,18.50
2019-04-26T11:41:37.654Z,18.60
2019-04-26T11:44:10.264Z,18.70
2019-04-26T11:46:45.030Z,18.60
2019-04-26T11:49:15.296Z,18.90
2019-04-26T11:51:47.586Z,18.50
2019-04-26T11:54:20.862Z,18.60
2019-04-26T11:56:52.222Z,18.50
2019-04-26T11:59:27.076Z,18.40
2019-04-26T12:01:57.882Z,18.40
2019-04-26T12:04:49.606Z,18.50
2019-04-26T12:07:28.301Z,18.60
2019-04-26T12:10:01.604Z,18.40
2019-04-26T12:12:35.538Z,18.30
2019-04-26T12:15:08.552Z,18.10
2019-04-26T12:17:42.382Z,17.90
2019-04-26T12:20:14.354Z,17.90
2019-04-26T12:22:46.411Z,17.90
2019-04-26T12:25:18.138Z,17.80
2019-04-26T12:27:53.338Z,17.70
2019-04-26T12:30:26.598Z,17.50
2019-04-26T12:32:56.714Z,17.50
2019-04-26T12:35:30.101Z,17.40
2019-04-26T12:38:01.739Z,17.30
2019-04-26T12:40:33.359Z,17.30
2019-04-26T12:43:05.078Z,17.40
2019-04-26T12:45:51.468Z,17.60
2019-04-26T12:48:23.112Z,17.50
2019-04-26T12:50:55.119Z,17.60
2019-04-26T12:53:31.479Z,17.70
2019-04-26T12:56:00.411Z,17.60
2019-04-26T12:58:32.432Z,17.50
2019-04-26T13:01:08.102Z,17.50
2019-04-26T13:03:40.309Z,17.40
2019-04-26T13:06:12.181Z,17.30
2019-04-26T13:08:47.199Z,17.40
2019-04-26T13:11:32.718Z,17.50
2019-04-26T13:14:29.373Z,17.70
2019-04-26T13:17:05.376Z,18.00
2019-04-26T13:19:37.180Z,17.80
2019-04-26T13:22:12.608Z,17.80
2019-04-26T13:24:44.313Z,18.00
2019-04-26T13:27:15.815Z,18.10
2019-04-26T13:29:49.397Z,18.10
2019-04-26T13:32:21.626Z,18.40
2019-04-26T13:34:53.105Z,18.60
2019-04-26T13:37:24.490Z,19.10
2019-04-26T13:39:56.716Z,19.10
2019-04-26T13:42:28.239Z,18.70
2019-04-26T13:45:18.622Z,19.10
2019-04-26T13:48:07.640Z,18.90
2019-04-26T13:50:43.228Z,18.60
2019-04-26T13:53:15.287Z,18.40
2019-04-26T13:55:46.671Z,18.30
2019-04-26T13:58:20.877Z,18.30
2019-04-26T14:00:52.431Z,18.30
2019-04-26T14:03:27.272Z,18.60
2019-04-26T14:05:59.326Z,18.80
2019-04-26T14:08:31.008Z,18.80
2019-04-26T14:11:03.084Z,18.60
2019-04-26T14:13:34.470Z,18.40
2019-04-26T14:16:06.528Z,18.10
2019-04-26T14:18:39.083Z,17.80
2019-04-26T14:21:12.324Z,17.20
2019-04-26T14:23:57.689Z,17.00
2019-04-26T14:26:41.554Z,16.90
2019-04-26T14:29:15.090Z,16.90
2019-04-26T14:31:47.195Z,17.00
2019-04-26T14:34:20.094Z,16.90
2019-04-26T14:36:51.930Z,16.90
2019-04-26T14:39:33.879Z,16.90
2019-04-26T14:41:58.087Z,16.80
2019-04-26T14:44:31.388Z,16.70
2019-04-26T14:47:12.930Z,16.60
2019-04-26T14:49:39.633Z,16.50
2019-04-26T14:52:09.534Z,16.50
2019-04-26T14:54:45.498Z,16.40
2019-04-26T14:57:19.958Z,16.30
2019-04-26T14:59:56.844Z,15.90
2019-04-26T15:02:47.450Z,15.50
2019-04-26T15:05:50.321Z,15.40
2019-04-26T15:08:23.381Z,15.50
2019-04-26T15:11:00.785Z,15.80
2019-04-26T15:13:28.046Z,16.00
2019-04-26T15:16:03.979Z,16.30
2019-04-26T15:18:37.088Z,16.60
2019-04-26T15:21:07.737Z,16.80
2019-04-26T15:23:39.359Z,16.80
2019-04-26T15:26:10.736Z,16.80
2019-04-26T15:28:50.062Z,16.70
2019-04-26T15:31:21.569Z,16.40
2019-04-26T15:33:53.171Z,15.80
2019-04-26T15:36:25.953Z,14.80
2019-04-26T15:38:59.487Z,14.20
2019-04-26T15:41:58.912Z,13.90
2019-04-26T15:44:36.745Z,13.50
2019-04-26T15:47:39.155Z,13.10
2019-04-26T15:50:31.212Z,12.90
2019-04-26T15:53:06.706Z,12.90
2019-04-26T15:55:39.937Z,12.80
2019-04-26T15:58:11.846Z,13.30
2019-04-26T16:00:44.226Z,13.60
2019-04-26T16:03:17.131Z,13.90
2019-04-26T16:05:50.875Z,14.10
2019-04-26T16:08:26.627Z,14.40
2019-04-26T16:10:59.681Z,14.80
2019-04-26T16:13:33.205Z,15.10
2019-04-26T16:16:06.475Z,15.50
2019-04-26T16:18:39.510Z,15.80
2019-04-26T16:21:17.686Z,15.90
2019-04-26T16:23:51.023Z,15.70
2019-04-26T16:26:20.700Z,15.80
2019-04-26T16:29:18.354Z,16.00
2019-04-26T16:32:12.430Z,16.00
2019-04-26T16:34:47.719Z,16.10
2019-04-26T16:37:21.660Z,16.10
2019-04-26T16:39:53.377Z,16.00
2019-04-26T16:42:28.273Z,15.90
2019-04-26T16:45:04.581Z,16.00
2019-04-26T16:47:42.258Z,16.00
2019-04-26T16:50:15.012Z,16.10
2019-04-26T16:52:47.725Z,16.10
2019-04-26T16:55:21.225Z,15.90
2019-04-26T16:57:58.045Z,15.80
2019-04-26T17:00:47.023Z,15.70
2019-04-26T17:03:03.953Z,15.50
2019-04-26T17:05:47.752Z,15.20
2019-04-26T17:08:10.342Z,15.10
2019-04-26T17:10:42.361Z,15.10
2019-04-26T17:13:15.343Z,15.00
2019-04-26T17:15:47.327Z,14.90
2019-04-26T17:18:23.814Z,14.80
2019-04-26T17:20:54.280Z,14.80
2019-04-26T17:23:45.347Z,14.70
2019-04-26T17:26:33.707Z,14.70
2019-04-26T17:29:03.819Z,14.70
2019-04-26T17:31:35.555Z,14.70
2019-04-26T17:34:07.445Z,14.70
2019-04-26T17:36:39.349Z,14.70
2019-04-26T17:39:16.877Z,14.60
2019-04-26T17:41:50.781Z,14.50
2019-04-26T17:44:20.615Z,14.30
2019-04-26T17:46:56.340Z,14.20
2019-04-26T17:49:27.522Z,14.10
2019-04-26T17:52:00.345Z,14.10
2019-04-26T17:54:46.347Z,14.00
2019-04-26T17:57:08.894Z,14.00
2019-04-26T17:59:47.753Z,13.90
2019-04-26T18:02:31.479Z,13.90
2019-04-26T18:04:58.911Z,13.80
2019-04-26T18:07:40.159Z,13.80
2019-04-26T18:10:04.370Z,13.70
2019-04-26T18:12:38.983Z,13.60
2019-04-26T18:15:10.353Z,13.50
2019-04-26T18:18:04.867Z,13.50
2019-04-26T18:21:07.401Z,13.40
2019-04-26T18:23:39.322Z,13.40
2019-04-26T18:26:11.296Z,13.30
2019-04-26T18:28:46.216Z,13.20
2019-04-26T18:31:21.408Z,13.20
2019-04-26T18:33:48.950Z,13.10
2019-04-26T18:36:21.227Z,13.10
2019-04-26T18:38:53.679Z,13.10
2019-04-26T18:41:28.833Z,13.00
2019-04-26T18:44:03.028Z,13.00
2019-04-26T18:46:46.933Z,13.00
2019-04-26T18:49:19.007Z,13.00
2019-04-26T18:51:50.123Z,12.90
2019-04-26T18:54:38.305Z,13.00
2019-04-26T18:57:15.678Z,12.90
2019-04-26T18:59:50.606Z,12.90
2019-04-26T19:02:19.878Z,12.90
2019-04-26T19:04:52.946Z,12.90
2019-04-26T19:07:32.012Z,12.80
2019-04-26T19:10:04.687Z,12.80
2019-04-26T19:12:32.856Z,12.70
2019-04-26T19:15:16.819Z,12.60
2019-04-26T19:18:11.602Z,12.40
2019-04-26T19:21:26.640Z,12.40
2019-04-26T19:24:05.833Z,12.20
2019-04-26T19:26:34.861Z,12.10
2019-04-26T19:29:16.346Z,12.00
2019-04-26T19:31:41.483Z,11.80
2019-04-26T19:34:12.932Z,11.80
2019-04-26T19:36:44.406Z,11.70
2019-04-26T19:39:16.523Z,11.50
2019-04-26T19:41:51.960Z,11.40
2019-04-26T19:44:24.265Z,11.30
2019-04-26T19:47:14.539Z,11.10
2019-04-26T19:50:09.500Z,11.20
2019-04-26T19:52:46.542Z,11.20
2019-04-26T19:55:32.309Z,11.00
2019-04-26T19:58:09.704Z,10.90
2019-04-26T20:00:43.470Z,10.70
2019-04-26T20:03:16.642Z,10.60
2019-04-26T20:05:46.269Z,10.60
2019-04-26T20:08:17.747Z,10.60
2019-04-26T20:10:49.164Z,10.60
2019-04-26T20:13:22.036Z,10.50
2019-04-26T20:15:57.439Z,10.40
2019-04-26T20:18:27.077Z,10.40
2019-04-26T20:20:59.293Z,10.40
2019-04-26T20:23:33.629Z,10.40
2019-04-26T20:26:07.247Z,10.40
2019-04-26T20:28:39.268Z,10.40
2019-04-26T20:31:29.682Z,10.30
2019-04-26T20:34:05.526Z,10.30
2019-04-26T20:36:40.725Z,10.30
2019-04-26T20:39:09.726Z,10.20
2019-04-26T20:41:42.638Z,10.20
2019-04-26T20:44:14.275Z,10.10
2019-04-26T20:46:45.933Z,10.10
2019-04-26T20:49:21.311Z,10.00
2019-04-26T20:51:53.610Z,10.10
2019-04-26T20:54:24.954Z,10.00
2019-04-26T20:56:56.608Z,9.90
2019-04-26T20:59:29.728Z,10.00
2019-04-26T21:02:07.501Z,9.90
2019-04-26T21:04:38.309Z,9.90
2019-04-26T21:07:11.359Z,9.90
2019-04-26T21:09:43.472Z,9.80
2019-04-26T21:12:17.267Z,9.70
2019-04-26T21:14:48.380Z,9.60
2019-04-26T21:17:24.330Z,9.70
2019-04-26T21:19:58.541Z,9.80
2019-04-26T21:22:29.508Z,9.80
2019-04-26T21:25:06.332Z,9.70
2019-04-26T21:28:02.458Z,9.70
2019-04-26T21:30:55.244Z,9.70
2019-04-26T21:33:38.871Z,9.80
2019-04-26T21:36:26.650Z,9.80
2019-04-26T21:39:16.116Z,9.90
2019-04-26T21:41:48.509Z,9.90
2019-04-26T21:44:22.707Z,9.80
2019-04-26T21:46:58.791Z,9.80
2019-04-26T21:49:30.323Z,9.80
2019-04-26T21:52:01.887Z,9.80
2019-04-26T21:54:33.667Z,9.80
2019-04-26T21:57:05.310Z,9.80
2019-04-26T21:59:40.823Z,9.70
2019-04-26T22:02:14.037Z,9.80
2019-04-26T22:04:45.873Z,9.90
2019-04-26T22:07:17.666Z,9.80
2019-04-26T22:10:14.389Z,9.90
2019-04-26T22:12:48.437Z,9.90
2019-04-26T22:15:48.946Z,9.80
2019-04-26T22:18:24.847Z,9.80
2019-04-26T22:21:05.574Z,9.80
2019-04-26T22:23:54.690Z,9.80
2019-04-26T22:26:26.615Z,9.80
2019-04-26T22:29:00.198Z,9.80
2019-04-26T22:31:31.513Z,9.70
2019-04-26T22:34:07.585Z,9.70
2019-04-26T22:36:36.513Z,9.60
2019-04-26T22:39:17.089Z,9.60
2019-04-26T22:41:48.915Z,9.50
2019-04-26T22:44:31.168Z,9.50
2019-04-26T22:47:18.646Z,9.40
2019-04-26T22:49:50.923Z,9.20
2019-04-26T22:52:23.190Z,9.20
2019-04-26T22:54:57.059Z,9.20
2019-04-26T22:57:29.251Z,9.10
2019-04-26T23:00:02.039Z,9.10
2019-04-26T23:02:35.679Z,9.10
2019-04-26T23:05:07.331Z,9.20
2019-04-26T23:07:42.582Z,9.20
2019-04-26T23:10:16.274Z,9.20
2019-04-26T23:13:07.949Z,9.20
2019-04-26T23:16:14.460Z,9.20
2019-04-26T23:19:07.020Z,9.30
2019-04-26T23:21:44.255Z,9.20
2019-04-26T23:24:17.537Z,9.10
2019-04-26T23:26:48.130Z,9.10
2019-04-26T23:29:19.599Z,9.10
2019-04-26T23:31:50.996Z,9.10
2019-04-26T23:34:22.788Z,9.00
2019-04-26T23:36:55.981Z,9.00
2019-04-26T23:39:28.516Z,9.00
2019-04-26T23:42:00.181Z,9.00
2019-04-26T23:44:33.107Z,9.00
2019-04-26T23:47:18.513Z,9.00
2019-04-26T23:49:38.852Z,9.10
2019-04-26T23:52:14.590Z,9.10
2019-04-26T23:54:44.666Z,9.20
2019-04-26T23:57:16.381Z,9.20
2019-04-26T23:59:51.141Z,9.30
